Time;durP1;ratioP1;P1;durP2;ratioP2;P2;SDS_P1;SDS_P2;PMS_P1;PMS_P2;Temp;Humidity;BMP_temperature;BMP_pressure;BME280_temperature;BME280_humidity;BME280_pressure;Samples;Min_cycle;Max_cycle;Signal;HPM_P1;HPM_P2
2022/06/16 00:01:46;;;;;;;3.03;2.83;;;22.60;27.10;;;;;;10559159;27;20314;-75
2022/06/16 00:06:52;;;;;;;5.03;3.20;;;22.60;27.10;;;;;;10558240;27;20278;-75
2022/06/16 00:11:56;;;;;;;2.80;2.60;;;22.60;27.70;;;;;;10556743;27;20226;-75
2022/06/16 00:16:59;;;;;;;4.43;2.57;;;22.60;27.10;;;;;;10550336;27;20238;-75
2022/06/16 00:22:04;;;;;;;3.03;2.83;;;22.60;27.10;;;;;;10554812;27;21044;-75
2022/06/16 00:27:07;;;;;;;3.20;2.87;;;22.60;28.00;;;;;;10559392;27;20231;-75
2022/06/16 00:32:10;;;;;;;3.43;3.13;;;22.60;27.20;;;;;;10561786;27;20231;-75
2022/06/16 00:37:16;;;;;;;4.43;2.40;;;22.60;27.40;;;;;;10558387;27;20291;-75
2022/06/16 00:42:22;;;;;;;3.00;2.70;;;22.60;28.00;;;;;;10560541;27;20906;-75
2022/06/16 00:47:27;;;;;;;3.20;3.00;;;22.60;28.20;;;;;;10559358;27;20711;-75
2022/06/16 00:52:33;;;;;;;3.30;3.00;;;22.60;28.10;;;;;;10553215;27;20709;-75
2022/06/16 00:57:41;;;;;;;4.27;3.10;;;22.60;28.70;;;;;;10557741;27;20228;-75
2022/06/16 01:02:44;;;;;;;3.60;3.30;;;22.50;28.80;;;;;;10556686;27;20231;-75
2022/06/16 01:07:50;;;;;;;3.10;2.80;;;22.50;28.20;;;;;;10561321;27;20231;-75
2022/06/16 01:18:46;;;;;;;4.00;3.50;;;22.40;28.80;;;;;;10549846;27;20225;-75
2022/06/16 01:24:34;;;;;;;4.93;2.93;;;22.40;29.70;;;;;;10559290;27;20223;-75
2022/06/16 01:29:45;;;;;;;3.13;2.90;;;22.30;28.70;;;;;;10547425;27;20233;-75
2022/06/16 01:34:56;;;;;;;3.23;3.03;;;22.30;29.30;;;;;;10558737;27;20223;-76
2022/06/16 01:40:03;;;;;;;3.90;3.50;;;22.30;29.00;;;;;;10551171;28;20242;-75
2022/06/16 01:45:15;;;;;;;3.47;3.20;;;22.20;29.30;;;;;;10546144;27;20234;-76
2022/06/16 01:50:24;;;;;;;5.20;3.87;;;22.20;29.70;;;;;;10555121;28;20241;-75
2022/06/16 01:55:36;;;;;;;3.53;3.23;;;22.10;29.50;;;;;;10548820;27;20231;-75
2022/06/16 02:00:43;;;;;;;3.63;3.33;;;22.00;29.80;;;;;;10553062;28;20219;-75
2022/06/16 02:05:53;;;;;;;3.80;3.50;;;21.80;29.50;;;;;;10553325;28;20242;-75
2022/06/16 02:11:02;;;;;;;3.90;3.60;;;21.70;29.90;;;;;;10554571;28;20227;-76
2022/06/16 02:16:12;;;;;;;3.53;3.27;;;21.60;30.00;;;;;;10539664;28;20346;-76
2022/06/16 02:21:20;;;;;;;3.67;3.27;;;21.40;30.50;;;;;;10555378;27;20235;-76
2022/06/16 02:26:23;;;;;;;3.73;2.93;;;21.30;30.20;;;;;;10558245;27;20231;-76
2022/06/16 02:31:47;;;;;;;4.57;3.70;;;21.10;29.70;;;;;;10558425;27;20223;-76
2022/06/16 02:37:16;;;;;;;3.27;2.80;;;21.00;30.90;;;;;;10561049;27;20233;-76
2022/06/16 02:42:27;;;;;;;3.40;3.10;;;20.90;30.80;;;;;;10527234;27;20217;-76
2022/06/16 02:47:45;;;;;;;3.77;3.47;;;20.90;31.10;;;;;;10553910;27;20707;-76
2022/06/16 02:52:54;;;;;;;4.03;3.63;;;20.90;31.80;;;;;;10551049;28;20223;-76
2022/06/16 02:58:00;;;;;;;4.13;3.73;;;20.90;31.60;;;;;;10558162;28;20232;-76
2022/06/16 03:03:19;;;;;;;3.60;3.30;;;20.80;31.40;;;;;;10544805;28;20228;-77
2022/06/16 03:08:25;;;;;;;3.70;3.30;;;20.60;31.50;;;;;;10548643;28;20237;-77
2022/06/16 03:13:30;;;;;;;3.47;3.17;;;20.60;30.90;;;;;;10552530;28;20256;-77
2022/06/16 03:18:34;;;;;;;4.17;3.20;;;20.60;31.20;;;;;;10555874;28;20243;-77
2022/06/16 03:23:38;;;;;;;3.17;2.97;;;20.60;31.70;;;;;;10565349;27;20706;-77
2022/06/16 03:28:41;;;;;;;4.53;2.90;;;20.60;30.80;;;;;;10559960;27;20591;-77
2022/06/16 03:33:46;;;;;;;3.57;3.27;;;20.70;31.00;;;;;;10559295;27;20238;-77
2022/06/16 03:38:49;;;;;;;4.50;3.20;;;20.70;31.70;;;;;;10564126;28;20228;-77
2022/06/16 03:43:52;;;;;;;4.13;3.20;;;20.80;31.00;;;;;;10564304;28;20227;-77
2022/06/16 03:48:57;;;;;;;3.90;3.60;;;20.70;31.10;;;;;;10561141;27;20972;-77
2022/06/16 03:54:00;;;;;;;4.40;4.00;;;20.70;31.80;;;;;;10558170;28;20234;-77
2022/06/16 03:59:03;;;;;;;4.00;3.70;;;20.60;31.50;;;;;;10558795;28;20230;-77
2022/06/16 04:04:08;;;;;;;4.23;3.83;;;20.50;31.50;;;;;;10558998;28;20223;-77
2022/06/16 04:09:11;;;;;;;3.57;3.27;;;20.40;32.40;;;;;;10563785;27;20223;-77
2022/06/16 04:14:15;;;;;;;5.23;4.03;;;20.40;31.70;;;;;;10563062;27;20227;-77
2022/06/16 04:19:22;;;;;;;4.30;4.00;;;20.30;32.30;;;;;;10557773;27;20233;-77
2022/06/16 04:24:25;;;;;;;5.97;4.30;;;20.30;33.40;;;;;;10563849;27;20227;-77
2022/06/16 04:29:28;;;;;;;4.27;3.93;;;20.30;32.80;;;;;;10556835;27;20231;-77
2022/06/16 04:34:33;;;;;;;4.20;3.87;;;20.20;32.60;;;;;;10559668;28;20279;-77
2022/06/16 04:39:36;;;;;;;4.37;3.97;;;20.20;33.70;;;;;;10560873;27;20227;-77
2022/06/16 04:44:40;;;;;;;4.63;4.20;;;20.20;33.10;;;;;;10553571;27;20797;-77
2022/06/16 04:49:48;;;;;;;4.80;4.40;;;20.20;33.50;;;;;;10559186;27;20330;-77
2022/06/16 04:54:52;;;;;;;4.87;4.47;;;20.20;34.40;;;;;;10552406;27;20235;-76
2022/06/16 05:00:03;;;;;;;5.00;4.50;;;20.20;33.60;;;;;;10546209;27;20207;-77
2022/06/16 05:05:27;;;;;;;5.87;4.50;;;20.30;34.20;;;;;;10550877;27;20586;-77
2022/06/16 05:10:30;;;;;;;5.27;4.87;;;20.30;35.30;;;;;;10551348;27;20219;-77
2022/06/16 05:15:35;;;;;;;4.93;4.53;;;20.40;34.50;;;;;;10551868;27;20220;-77
2022/06/16 05:20:41;;;;;;;4.97;4.57;;;20.50;34.90;;;;;;10563406;27;20223;-77
2022/06/16 05:25:44;;;;;;;6.13;5.50;;;20.70;35.80;;;;;;10555147;27;20228;-76
2022/06/16 05:30:48;;;;;;;7.63;5.60;;;20.80;35.30;;;;;;10540546;27;20226;-76
2022/06/16 05:36:04;;;;;;;5.27;4.83;;;21.00;35.80;;;;;;10557971;27;20239;-76
2022/06/16 05:41:12;;;;;;;5.90;5.43;;;21.10;37.50;;;;;;10528162;27;20211;-77
2022/06/16 05:46:18;;;;;;;6.23;5.73;;;21.30;36.20;;;;;;10537115;27;20230;-77
2022/06/16 05:51:23;;;;;;;6.43;5.83;;;21.40;36.40;;;;;;10553107;28;20242;-77
2022/06/16 05:56:27;;;;;;;5.73;5.30;;;21.60;36.40;;;;;;10548611;27;20251;-77
2022/06/16 06:01:30;;;;;;;6.60;6.00;;;21.70;35.90;;;;;;10551882;27;20223;-77
2022/06/16 06:06:35;;;;;;;9.50;6.00;;;21.80;36.10;;;;;;10549371;28;20227;-77
2022/06/16 06:17:02;;;;;;;6.57;5.90;;;22.10;37.10;;;;;;10547644;27;20235;-77
2022/06/16 06:22:11;;;;;;;6.27;5.67;;;22.40;36.10;;;;;;10550619;28;20302;-77
2022/06/16 06:27:19;;;;;;;5.70;5.30;;;22.60;36.70;;;;;;10546892;28;20279;-77
2022/06/16 06:32:24;;;;;;;6.63;6.13;;;22.80;36.20;;;;;;10547730;27;20596;-77
2022/06/16 06:37:29;;;;;;;7.03;6.23;;;23.10;35.80;;;;;;10550849;28;20374;-77
2022/06/16 06:42:32;;;;;;;6.53;6.03;;;23.30;35.90;;;;;;10553677;28;20225;-77
2022/06/16 06:47:35;;;;;;;7.07;6.47;;;23.50;35.20;;;;;;10550602;28;20226;-77
2022/06/16 06:52:40;;;;;;;7.33;6.63;;;23.70;34.80;;;;;;10554607;28;20222;-78
2022/06/16 06:57:44;;;;;;;7.57;6.97;;;23.90;34.70;;;;;;10549207;28;20226;-78
2022/06/16 07:02:47;;;;;;;7.23;6.20;;;24.10;34.30;;;;;;10543781;28;20237;-78
2022/06/16 07:07:56;;;;;;;6.37;5.87;;;24.20;34.30;;;;;;10549158;28;20712;-78
2022/06/16 07:12:59;;;;;;;6.53;5.93;;;24.40;34.30;;;;;;10557928;27;20843;-78
2022/06/16 07:18:03;;;;;;;6.40;5.87;;;24.50;34.20;;;;;;10542315;28;20258;-78
2022/06/16 07:23:08;;;;;;;6.67;6.17;;;24.70;34.20;;;;;;10545082;28;20216;-79
2022/06/16 07:28:12;;;;;;;5.90;5.50;;;24.90;34.20;;;;;;10547649;28;20660;-78
2022/06/16 07:33:15;;;;;;;6.10;5.60;;;25.10;34.40;;;;;;10553041;28;20255;-78
2022/06/16 07:38:21;;;;;;;6.03;5.50;;;25.30;33.90;;;;;;10549488;28;20239;-78
2022/06/16 07:43:25;;;;;;;6.37;5.77;;;25.50;33.50;;;;;;10548968;28;20251;-78
2022/06/16 07:48:28;;;;;;;5.90;5.27;;;25.70;33.20;;;;;;10546981;28;20794;-78
2022/06/16 07:53:33;;;;;;;6.20;5.00;;;25.90;33.20;;;;;;10546257;28;20444;-78
2022/06/16 07:58:39;;;;;;;5.50;5.00;;;26.10;32.90;;;;;;10546711;28;20310;-75
2022/06/16 08:03:42;;;;;;;5.27;4.87;;;26.30;32.40;;;;;;10547637;28;20589;-76
2022/06/16 08:08:47;;;;;;;5.33;4.93;;;26.50;32.10;;;;;;10558076;28;20231;-75
2022/06/16 08:13:51;;;;;;;5.37;4.87;;;26.70;31.80;;;;;;10555217;27;20772;-76
2022/06/16 08:18:54;;;;;;;5.17;4.70;;;26.90;31.30;;;;;;10555516;27;20238;-75
2022/06/16 08:23:59;;;;;;;5.33;4.93;;;27.10;31.50;;;;;;10555127;27;20254;-75
2022/06/16 08:29:03;;;;;;;4.70;4.30;;;27.40;31.10;;;;;;10557447;27;20237;-75
2022/06/16 08:34:08;;;;;;;4.80;4.40;;;27.60;31.00;;;;;;10557442;27;20236;-75
2022/06/16 08:39:12;;;;;;;4.47;4.07;;;27.90;30.60;;;;;;10540716;27;20219;-75
2022/06/16 08:44:21;;;;;;;4.20;3.87;;;28.20;30.30;;;;;;10543212;28;20820;-73
2022/06/16 08:49:39;;;;;;;3.93;3.63;;;28.40;29.40;;;;;;10556300;27;20223;-72
2022/06/16 08:54:57;;;;;;;3.90;3.40;;;28.70;29.80;;;;;;10551140;27;20723;-74
2022/06/16 09:00:06;;;;;;;3.40;3.20;;;28.90;28.30;;;;;;10553090;27;20223;-74
2022/06/16 09:05:24;;;;;;;3.70;3.40;;;29.20;27.70;;;;;;10536181;27;20247;-73
2022/06/16 09:10:38;;;;;;;3.83;3.50;;;29.40;27.10;;;;;;10562469;27;20222;-73
2022/06/16 09:15:49;;;;;;;5.93;3.60;;;29.40;26.30;;;;;;10563683;28;20235;-76
2022/06/16 09:21:02;;;;;;;4.23;3.60;;;29.40;26.80;;;;;;10569374;27;20346;-78
2022/06/16 09:26:19;;;;;;;3.73;3.40;;;29.30;26.70;;;;;;10559278;27;20302;-76
2022/06/16 09:31:30;;;;;;;3.90;3.47;;;29.20;27.90;;;;;;10554836;28;20284;-76
2022/06/16 09:36:38;;;;;;;4.13;3.73;;;29.10;28.00;;;;;;10550016;27;20573;-76
2022/06/16 09:47:15;;;;;;;4.20;3.90;;;28.80;28.00;;;;;;10534789;27;20238;-76
2022/06/16 09:52:24;;;;;;;4.03;3.73;;;28.80;28.90;;;;;;10536335;27;20241;-76
2022/06/16 09:57:36;;;;;;;4.43;3.77;;;28.70;29.30;;;;;;10546199;27;20292;-76
2022/06/16 10:02:45;;;;;;;5.60;3.80;;;28.70;29.30;;;;;;10549321;28;20469;-75
2022/06/16 10:07:57;;;;;;;3.90;3.60;;;28.80;28.60;;;;;;10556315;28;20230;-74
2022/06/16 10:13:10;;;;;;;4.37;4.07;;;28.80;29.60;;;;;;10554851;28;20283;-76
2022/06/16 10:18:13;;;;;;;3.80;3.50;;;28.90;28.90;;;;;;10548510;27;20229;-75
2022/06/16 10:23:23;;;;;;;3.63;3.33;;;29.00;28.90;;;;;;10561002;27;20277;-75
2022/06/16 10:28:31;;;;;;;3.23;3.03;;;29.20;28.60;;;;;;10565979;27;20227;-75
2022/06/16 10:33:36;;;;;;;3.60;3.30;;;29.40;27.00;;;;;;10562403;28;20230;-75
2022/06/16 10:38:47;;;;;;;3.57;3.27;;;29.70;27.10;;;;;;10555338;28;20284;-75
2022/06/16 10:43:54;;;;;;;3.97;3.47;;;29.90;25.90;;;;;;10551871;27;20751;-74
2022/06/16 10:49:03;;;;;;;3.40;3.10;;;30.10;25.20;;;;;;10548207;27;20988;-74
2022/06/16 10:54:15;;;;;;;3.83;3.10;;;30.30;24.70;;;;;;10533301;28;20223;-74
2022/06/16 10:59:27;;;;;;;3.20;2.90;;;30.50;24.50;;;;;;10554365;28;20566;-76
2022/06/16 11:04:37;;;;;;;3.30;3.00;;;30.60;23.10;;;;;;10560114;28;20238;-75
2022/06/16 11:09:40;;;;;;;3.60;3.30;;;30.70;23.60;;;;;;10549458;28;20222;-75
2022/06/16 11:14:48;;;;;;;4.23;3.30;;;30.60;24.70;;;;;;10557325;28;20240;-75
2022/06/16 11:19:59;;;;;;;2.93;2.73;;;30.60;23.70;;;;;;10556735;28;20215;-75
2022/06/16 11:25:07;;;;;;;2.93;2.73;;;30.60;23.70;;;;;;10550728;28;20222;-75
2022/06/16 11:30:36;;;;;;;3.53;2.73;;;30.60;22.70;;;;;;10556565;28;20235;-75
2022/06/16 11:35:49;;;;;;;3.10;2.80;;;30.60;23.30;;;;;;10560884;28;20237;-75
2022/06/16 11:40:58;;;;;;;3.13;2.67;;;30.60;22.20;;;;;;10564590;28;20598;-75
2022/06/16 11:46:08;;;;;;;3.13;2.93;;;30.60;22.70;;;;;;10570867;28;20941;-76
2022/06/16 11:51:22;;;;;;;3.20;2.90;;;30.70;22.40;;;;;;10505810;28;21025;-74
2022/06/16 11:56:39;;;;;;;3.10;2.80;;;30.90;22.30;;;;;;10501824;27;21041;-76
2022/06/16 12:01:46;;;;;;;3.43;2.70;;;30.90;22.30;;;;;;10489486;28;20249;-76
2022/06/16 12:07:05;;;;;;;3.63;3.07;;;31.00;22.20;;;;;;10495101;28;20731;-75
2022/06/16 12:12:15;;;;;;;3.20;3.00;;;31.00;21.90;;;;;;10536421;27;20218;-75
2022/06/16 12:17:24;;;;;;;3.03;2.83;;;31.20;21.70;;;;;;10511108;28;20736;-78
2022/06/16 12:22:33;;;;;;;3.30;3.00;;;31.30;21.50;;;;;;10522779;28;20227;-80
2022/06/16 12:27:55;;;;;;;4.77;3.10;;;31.40;21.60;;;;;;10526914;28;20250;-79
2022/06/16 12:33:09;;;;;;;3.40;3.10;;;31.50;21.90;;;;;;10520146;28;20638;-76
2022/06/16 12:38:18;;;;;;;3.47;3.17;;;31.50;20.80;;;;;;10502578;28;20254;-78
2022/06/16 12:43:30;;;;;;;3.67;3.30;;;31.70;20.50;;;;;;10500646;28;20225;-78
2022/06/16 12:48:41;;;;;;;3.30;3.00;;;31.70;20.60;;;;;;10488619;28;20871;-75
2022/06/16 12:53:52;;;;;;;3.97;3.13;;;31.70;20.80;;;;;;10488702;28;20878;-76
2022/06/16 12:59:02;;;;;;;5.83;2.90;;;31.90;20.40;;;;;;10502508;28;20232;-79
2022/06/16 13:04:11;;;;;;;3.07;2.87;;;31.90;20.20;;;;;;10514065;28;20237;-78
2022/06/16 13:09:15;;;;;;;3.50;3.17;;;31.90;20.20;;;;;;10509149;28;20215;-77
2022/06/16 13:14:23;;;;;;;3.40;3.10;;;32.00;20.60;;;;;;10502765;28;20223;-76
2022/06/16 13:19:34;;;;;;;4.43;3.60;;;31.90;20.30;;;;;;10503970;28;20262;-75
2022/06/16 13:24:42;;;;;;;4.43;3.40;;;32.10;20.20;;;;;;10498720;28;20298;-74
2022/06/16 13:30:01;;;;;;;3.73;3.43;;;32.20;20.20;;;;;;10498732;28;20222;-76
2022/06/16 13:35:48;;;;;;;3.70;3.40;;;32.30;19.60;;;;;;10539943;27;20224;-75
2022/06/16 13:41:44;;;;;;;3.43;3.13;;;32.40;19.40;;;;;;10505234;28;20246;-77
2022/06/16 13:47:08;;;;;;;3.60;3.30;;;32.40;17.90;;;;;;10497585;27;20224;-77
2022/06/16 13:52:18;;;;;;;3.40;3.20;;;32.30;18.90;;;;;;10488713;27;20302;-78
2022/06/16 13:57:24;;;;;;;5.90;3.40;;;32.30;18.70;;;;;;10495179;28;20240;-78
2022/06/16 14:02:29;;;;;;;4.00;2.90;;;32.30;18.80;;;;;;10492431;28;20961;-77
2022/06/16 14:07:36;;;;;;;4.00;3.33;;;32.20;18.90;;;;;;10494208;28;20289;-76
2022/06/16 14:13:01;;;;;;;4.00;3.60;;;32.30;18.60;;;;;;10490833;28;21006;-75
2022/06/16 14:18:18;;;;;;;3.67;3.37;;;32.20;17.50;;;;;;10500206;28;20226;-77
2022/06/16 14:23:34;;;;;;;4.70;3.73;;;32.20;19.90;;;;;;10487510;28;20227;-76
2022/06/16 14:28:40;;;;;;;4.17;3.77;;;32.10;19.40;;;;;;10487415;28;20220;-78
2022/06/16 14:33:50;;;;;;;4.20;3.90;;;32.20;19.30;;;;;;10487851;28;20247;-77
2022/06/16 14:38:58;;;;;;;4.00;3.70;;;32.20;18.20;;;;;;10488227;28;20243;-77
2022/06/16 14:44:07;;;;;;;4.43;3.60;;;32.10;17.80;;;;;;10503381;28;20219;-77
2022/06/16 14:49:16;;;;;;;4.33;3.97;;;31.90;18.10;;;;;;10522593;28;20302;-77
2022/06/16 14:54:24;;;;;;;3.80;3.60;;;31.70;18.10;;;;;;10547664;28;20234;-77
2022/06/16 14:59:35;;;;;;;3.77;3.47;;;31.60;18.20;;;;;;10503795;28;20219;-77
2022/06/16 15:04:41;;;;;;;4.43;3.70;;;31.50;18.10;;;;;;10517136;28;21079;-77
2022/06/16 15:10:06;;;;;;;3.90;3.60;;;31.50;17.60;;;;;;10542268;27;20713;-77
2022/06/16 15:15:11;;;;;;;3.40;3.20;;;31.40;18.00;;;;;;10544467;28;20597;-77
2022/06/16 15:20:16;;;;;;;3.50;3.20;;;31.30;17.80;;;;;;10545211;28;20343;-77
2022/06/16 15:25:32;;;;;;;3.33;3.03;;;31.30;17.50;;;;;;10543894;28;20227;-77
2022/06/16 15:30:35;;;;;;;4.50;3.40;;;31.30;16.90;;;;;;10546879;27;20227;-77
2022/06/16 15:41:01;;;;;;;3.27;3.07;;;31.30;17.00;;;;;;10540383;28;20226;-77
2022/06/16 15:46:09;;;;;;;3.60;3.30;;;31.40;17.20;;;;;;10546590;28;20227;-79
2022/06/16 15:51:16;;;;;;;3.63;3.30;;;31.40;16.70;;;;;;10545064;28;20238;-75
2022/06/16 15:56:27;;;;;;;3.13;2.80;;;31.30;15.70;;;;;;10542504;28;20227;-75
2022/06/16 16:01:32;;;;;;;5.07;3.00;;;31.30;16.10;;;;;;10543895;28;20226;-75
2022/06/16 16:06:40;;;;;;;3.47;3.17;;;31.30;16.50;;;;;;10542194;28;20725;-76
2022/06/16 16:11:44;;;;;;;3.33;3.03;;;31.20;16.10;;;;;;10547182;28;20239;-77
2022/06/16 16:16:57;;;;;;;3.30;3.10;;;31.20;16.40;;;;;;10533516;28;20226;-75
2022/06/16 16:22:09;;;;;;;5.30;3.43;;;31.20;16.10;;;;;;10569163;28;20231;-75
2022/06/16 16:27:15;;;;;;;3.30;3.10;;;31.20;15.60;;;;;;10575813;28;20254;-75
2022/06/16 16:32:28;;;;;;;4.80;3.10;;;31.20;16.30;;;;;;10576316;27;20309;-75
2022/06/16 16:37:35;;;;;;;3.40;3.10;;;31.20;16.10;;;;;;10575655;28;20234;-74
2022/06/16 16:43:02;;;;;;;4.43;3.10;;;31.20;16.50;;;;;;10589182;27;20690;-76
2022/06/16 16:48:12;;;;;;;3.37;3.07;;;31.10;16.10;;;;;;10583593;27;20231;-75
2022/06/16 16:53:26;;;;;;;3.17;2.97;;;31.10;16.50;;;;;;10575450;27;20241;-75
2022/06/16 16:58:29;;;;;;;3.50;3.20;;;31.20;16.50;;;;;;10574804;28;20737;-75
2022/06/16 17:03:33;;;;;;;3.60;3.30;;;31.20;16.90;;;;;;10595910;27;20224;-75
2022/06/16 17:08:38;;;;;;;3.33;3.10;;;31.10;16.80;;;;;;10616091;27;20236;-75
2022/06/16 17:13:41;;;;;;;3.10;2.90;;;31.00;16.80;;;;;;10617058;27;20915;-75
2022/06/16 17:18:45;;;;;;;3.23;3.03;;;31.00;16.90;;;;;;10616946;27;20232;-75
2022/06/16 17:23:50;;;;;;;3.27;2.97;;;31.00;16.80;;;;;;10616708;27;20246;-76
2022/06/16 17:28:53;;;;;;;5.47;2.83;;;30.90;16.30;;;;;;10617486;27;20232;-77
2022/06/16 17:33:57;;;;;;;3.30;2.90;;;30.80;16.60;;;;;;10573653;27;20234;-76
2022/06/16 17:39:02;;;;;;;2.97;2.77;;;30.70;16.70;;;;;;10576553;28;20245;-75
2022/06/16 17:44:10;;;;;;;3.50;3.03;;;30.70;16.90;;;;;;10573209;28;20589;-75
2022/06/16 17:49:14;;;;;;;3.60;2.73;;;30.60;17.30;;;;;;10573494;28;20258;-75
2022/06/16 17:59:40;;;;;;;3.10;2.80;;;30.60;17.20;;;;;;10572887;28;20227;-75
2022/06/16 18:04:43;;;;;;;3.03;2.83;;;30.50;16.50;;;;;;10572592;28;20226;-75
2022/06/16 18:09:48;;;;;;;2.90;2.70;;;30.40;16.70;;;;;;10572199;28;20227;-75
2022/06/16 18:14:52;;;;;;;2.97;2.77;;;30.40;16.80;;;;;;10565587;27;20227;-75
2022/06/16 18:19:56;;;;;;;2.93;2.73;;;30.30;16.70;;;;;;10568073;28;20269;-75
2022/06/16 18:25:01;;;;;;;2.70;2.50;;;30.30;16.80;;;;;;10567592;28;20254;-75
2022/06/16 18:30:05;;;;;;;2.70;2.50;;;30.20;16.60;;;;;;10526659;28;20609;-75
2022/06/16 18:35:15;;;;;;;2.70;2.50;;;30.10;16.70;;;;;;10531930;28;20438;-75
2022/06/16 18:40:20;;;;;;;2.93;2.60;;;29.90;16.50;;;;;;10530490;28;20228;-75
2022/06/16 18:45:24;;;;;;;3.40;2.73;;;29.80;16.80;;;;;;10532718;28;20281;-75
2022/06/16 18:50:27;;;;;;;2.80;2.60;;;29.70;16.80;;;;;;10543045;28;20223;-75
2022/06/16 18:55:31;;;;;;;2.90;2.70;;;29.60;16.90;;;;;;10529715;28;20239;-75
2022/06/16 19:00:35;;;;;;;2.87;2.67;;;29.50;16.90;;;;;;10529705;28;20227;-75
2022/06/16 19:05:38;;;;;;;2.70;2.50;;;29.40;17.00;;;;;;10529554;28;20223;-75
2022/06/16 19:10:45;;;;;;;2.73;2.50;;;29.40;17.10;;;;;;10529589;28;20224;-75
2022/06/16 19:15:52;;;;;;;2.97;2.77;;;29.30;17.00;;;;;;10529270;28;20235;-75
2022/06/16 19:20:57;;;;;;;2.93;2.73;;;29.10;17.10;;;;;;10561490;28;20245;-75
2022/06/16 19:26:05;;;;;;;3.83;2.67;;;29.00;17.20;;;;;;10512869;28;20281;-75
2022/06/16 19:31:12;;;;;;;3.80;2.60;;;28.90;17.30;;;;;;10539951;27;20219;-73
2022/06/16 19:36:16;;;;;;;2.80;2.60;;;28.70;17.20;;;;;;10535948;28;20283;-75
2022/06/16 19:41:27;;;;;;;2.67;2.47;;;28.60;17.40;;;;;;10510694;28;20234;-75
2022/06/16 19:51:53;;;;;;;3.73;2.47;;;28.40;17.50;;;;;;10481389;28;20256;-76
2022/06/16 19:56:59;;;;;;;2.73;2.30;;;28.30;17.50;;;;;;10495094;28;20220;-76
2022/06/16 20:02:04;;;;;;;2.50;2.30;;;28.20;17.60;;;;;;10506488;28;20218;-76
2022/06/16 20:07:10;;;;;;;2.40;2.30;;;28.10;18.00;;;;;;10506893;28;20263;-76
2022/06/16 20:12:14;;;;;;;2.43;2.23;;;28.10;18.20;;;;;;10512017;28;20242;-76
2022/06/16 20:17:18;;;;;;;2.40;2.30;;;28.00;18.50;;;;;;10513856;28;20227;-76
2022/06/16 20:22:22;;;;;;;2.80;2.60;;;27.90;18.60;;;;;;10505778;28;20232;-76
2022/06/16 20:27:27;;;;;;;2.60;2.40;;;27.80;18.60;;;;;;10511878;28;20758;-77
2022/06/16 20:32:30;;;;;;;3.83;2.47;;;27.70;18.80;;;;;;10504126;28;20228;-76
2022/06/16 20:37:33;;;;;;;2.80;2.60;;;27.60;19.00;;;;;;10510641;28;20234;-77
2022/06/16 20:42:39;;;;;;;2.70;2.50;;;27.50;19.20;;;;;;10506621;28;20255;-76
2022/06/16 20:47:43;;;;;;;2.83;2.63;;;27.30;19.70;;;;;;10502224;28;20239;-76
2022/06/16 20:52:46;;;;;;;2.70;2.47;;;27.10;19.60;;;;;;10502036;28;20306;-76
2022/06/16 21:03:11;;;;;;;2.87;2.43;;;26.60;19.80;;;;;;10503519;28;20222;-76
2022/06/16 21:08:19;;;;;;;2.83;2.60;;;26.30;19.90;;;;;;10495728;28;20234;-76
2022/06/16 21:13:24;;;;;;;2.90;2.70;;;26.10;20.70;;;;;;10496142;28;20746;-76
2022/06/16 21:18:28;;;;;;;2.63;2.43;;;26.00;20.80;;;;;;10496445;28;20299;-77
2022/06/16 21:23:34;;;;;;;3.03;2.83;;;25.90;20.80;;;;;;10496698;28;20231;-77
2022/06/16 21:28:39;;;;;;;2.80;2.60;;;25.80;20.90;;;;;;10506314;28;20808;-75
2022/06/16 21:33:44;;;;;;;2.80;2.63;;;25.70;21.10;;;;;;10535198;28;20330;-78
2022/06/16 21:38:48;;;;;;;3.07;2.70;;;25.60;21.00;;;;;;10537490;28;20285;-77
2022/06/16 21:43:53;;;;;;;4.27;2.60;;;25.30;21.10;;;;;;10536447;28;20223;-77
2022/06/16 21:49:07;;;;;;;3.03;2.83;;;25.00;21.70;;;;;;10509287;28;20239;-77
2022/06/16 21:54:11;;;;;;;2.83;2.63;;;24.80;22.00;;;;;;10559252;27;20222;-77
2022/06/16 21:59:15;;;;;;;2.87;2.60;;;24.60;22.00;;;;;;10567371;28;20241;-77
2022/06/16 22:04:21;;;;;;;3.50;3.20;;;24.40;22.50;;;;;;10582766;27;20226;-77
2022/06/16 22:09:24;;;;;;;3.23;3.00;;;24.20;22.90;;;;;;10601932;27;20238;-77
2022/06/16 22:19:51;;;;;;;2.80;2.60;;;24.00;23.10;;;;;;10573631;27;20249;-76
2022/06/16 22:24:54;;;;;;;3.20;2.90;;;23.80;22.90;;;;;;10587901;27;20234;-76
2022/06/16 22:29:58;;;;;;;3.00;2.80;;;23.70;23.10;;;;;;10574463;27;20254;-77
2022/06/16 22:35:02;;;;;;;3.20;2.80;;;23.60;23.60;;;;;;10589134;27;20711;-77
2022/06/16 22:45:29;;;;;;;3.07;2.87;;;23.40;23.90;;;;;;10529821;28;20597;-77
2022/06/16 22:50:32;;;;;;;3.33;3.03;;;23.30;24.40;;;;;;10542208;28;20219;-77
2022/06/16 23:00:58;;;;;;;2.83;2.63;;;23.30;24.40;;;;;;10574589;27;20233;-77
2022/06/16 23:06:01;;;;;;;3.10;2.77;;;23.30;24.80;;;;;;10581017;27;20227;-77
2022/06/16 23:11:05;;;;;;;3.60;3.30;;;23.30;25.20;;;;;;10572814;28;20234;-76
2022/06/16 23:16:11;;;;;;;3.00;2.80;;;23.40;25.00;;;;;;10595769;27;20237;-76
2022/06/16 23:21:21;;;;;;;3.37;3.07;;;23.30;25.60;;;;;;10571818;28;20726;-76
2022/06/16 23:26:28;;;;;;;3.10;2.90;;;23.30;25.70;;;;;;10583523;27;20234;-75
2022/06/16 23:31:37;;;;;;;4.97;2.77;;;23.10;25.10;;;;;;10588741;27;20229;-77
2022/06/16 23:36:41;;;;;;;3.13;2.50;;;23.00;25.90;;;;;;10591580;27;20736;-77
2022/06/16 23:41:45;;;;;;;3.57;3.10;;;22.80;25.20;;;;;;10588811;27;20227;-77
2022/06/16 23:46:53;;;;;;;3.13;2.93;;;22.70;25.70;;;;;;10606416;27;20234;-76
2022/06/16 23:51:57;;;;;;;3.40;3.00;;;22.70;26.40;;;;;;10622531;27;20706;-76
2022/06/16 23:57:00;;;;;;;3.30;3.10;;;22.60;25.70;;;;;;10589137;27;20237;-77
